createdAt,value
2017-11-24T00:01:51.350Z,4.60
2017-11-24T00:04:20.547Z,4.50
2017-11-24T00:06:49.953Z,4.50
2017-11-24T00:09:18.965Z,4.63
2017-11-24T00:11:47.213Z,4.60
2017-11-24T00:14:16.424Z,4.17
2017-11-24T00:16:45.633Z,4.17
2017-11-24T00:19:14.057Z,4.60
2017-11-24T00:21:42.508Z,4.13
2017-11-24T00:24:10.945Z,3.87
2017-11-24T00:26:40.165Z,4.30
2017-11-24T00:29:09.372Z,4.60
2017-11-24T00:31:38.392Z,4.23
2017-11-24T00:34:06.637Z,4.40
2017-11-24T00:36:41.206Z,4.50
2017-11-24T00:39:09.441Z,4.77
2017-11-24T00:41:38.659Z,4.40
2017-11-24T00:44:07.104Z,4.37
2017-11-24T00:46:36.288Z,3.80
2017-11-24T00:49:04.741Z,4.13
2017-11-24T00:51:32.985Z,3.60
2017-11-24T00:54:02.172Z,4.77
2017-11-24T00:56:31.384Z,3.93
2017-11-24T00:59:00.611Z,4.47
2017-11-24T01:01:29.054Z,4.53
2017-11-24T01:03:58.238Z,4.13
2017-11-24T01:06:26.852Z,3.67
2017-11-24T01:08:56.071Z,4.17
2017-11-24T01:11:24.512Z,3.60
2017-11-24T01:13:52.954Z,4.30
2017-11-24T01:16:21.389Z,4.47
2017-11-24T01:18:50.621Z,3.90
2017-11-24T01:21:19.077Z,3.70
2017-11-24T01:23:48.407Z,4.20
2017-11-24T01:26:16.843Z,4.53
2017-11-24T01:28:46.048Z,3.83
2017-11-24T01:31:15.302Z,3.53
2017-11-24T01:33:43.732Z,4.17
2017-11-24T01:36:12.964Z,4.40
2017-11-24T01:38:41.392Z,4.20
2017-11-24T01:41:09.976Z,4.47
2017-11-24T01:43:38.103Z,4.30
2017-11-24T01:46:06.548Z,4.43
2017-11-24T01:48:35.785Z,4.10
2017-11-24T01:51:04.219Z,4.03
2017-11-24T01:53:33.427Z,4.53
2017-11-24T01:56:01.501Z,4.40
2017-11-24T01:58:30.713Z,4.20
2017-11-24T02:00:58.484Z,4.97
2017-11-24T02:03:26.257Z,4.37
2017-11-24T02:05:54.858Z,4.70
2017-11-24T02:08:22.952Z,3.97
2017-11-24T02:10:51.365Z,3.80
2017-11-24T02:13:19.794Z,4.33
2017-11-24T02:15:48.257Z,3.73
2017-11-24T02:18:16.714Z,4.80
2017-11-24T02:20:45.592Z,4.33
2017-11-24T02:23:13.684Z,3.73
2017-11-24T02:25:42.649Z,3.67
2017-11-24T02:28:10.418Z,4.23
2017-11-24T02:30:38.868Z,4.30
2017-11-24T02:33:08.208Z,4.50
2017-11-24T02:35:35.971Z,4.30
2017-11-24T02:38:04.060Z,4.30
2017-11-24T02:40:32.177Z,4.00
2017-11-24T02:42:59.966Z,3.40
2017-11-24T02:45:28.456Z,3.50
2017-11-24T02:47:56.545Z,4.20
2017-11-24T02:50:24.744Z,4.20
2017-11-24T02:52:53.970Z,4.47
2017-11-24T02:55:22.393Z,4.10
2017-11-24T02:57:50.284Z,4.00
2017-11-24T03:00:18.711Z,4.47
2017-11-24T03:02:47.159Z,4.40
2017-11-24T03:05:16.372Z,4.47
2017-11-24T03:07:44.876Z,4.00
2017-11-24T03:10:12.652Z,3.70
2017-11-24T03:12:40.898Z,3.67
2017-11-24T03:15:09.349Z,4.07
2017-11-24T03:17:38.548Z,4.10
2017-11-24T03:20:07.847Z,5.00
2017-11-24T03:22:35.972Z,4.00
2017-11-24T03:25:04.433Z,4.40
2017-11-24T03:27:32.853Z,4.40
2017-11-24T03:30:01.322Z,3.70
2017-11-24T03:32:30.007Z,4.47
2017-11-24T03:34:58.612Z,4.07
2017-11-24T03:37:26.748Z,4.10
2017-11-24T03:39:55.177Z,4.30
2017-11-24T03:42:23.332Z,4.33
2017-11-24T03:44:51.936Z,4.00
2017-11-24T03:47:20.386Z,3.57
2017-11-24T03:49:48.803Z,3.60
2017-11-24T03:52:16.908Z,4.20
2017-11-24T03:54:45.392Z,3.97
2017-11-24T03:57:14.600Z,4.10
2017-11-24T03:59:43.455Z,4.00
2017-11-24T04:02:12.048Z,5.00
2017-11-24T04:04:40.140Z,4.20
2017-11-24T04:07:09.352Z,4.10
2017-11-24T04:09:37.788Z,4.50
2017-11-24T04:12:06.212Z,3.87
2017-11-24T04:14:35.517Z,4.60
2017-11-24T04:17:04.520Z,4.00
2017-11-24T04:19:32.764Z,4.10
2017-11-24T04:22:01.099Z,3.90
2017-11-24T04:24:29.271Z,4.40
2017-11-24T04:26:57.692Z,4.20
2017-11-24T04:29:26.129Z,4.73
2017-11-24T04:31:54.560Z,4.30
2017-11-24T04:34:24.496Z,5.07
2017-11-24T04:36:53.707Z,4.50
2017-11-24T04:39:22.149Z,4.80
2017-11-24T04:41:49.938Z,4.63
2017-11-24T04:44:18.952Z,4.60
2017-11-24T04:46:47.184Z,4.90
2017-11-24T04:49:15.634Z,4.40
2017-11-24T04:51:44.060Z,4.30
2017-11-24T04:54:13.267Z,4.33
2017-11-24T04:56:42.467Z,4.90
2017-11-24T04:59:11.664Z,4.20
2017-11-24T05:01:40.864Z,5.30
2017-11-24T05:04:10.140Z,4.10
2017-11-24T05:06:38.570Z,3.90
2017-11-24T05:09:07.004Z,4.00
2017-11-24T05:11:35.432Z,4.57
2017-11-24T05:14:03.884Z,4.53
2017-11-24T05:16:33.080Z,5.40
2017-11-24T05:19:01.524Z,5.43
2017-11-24T05:21:29.949Z,5.87
2017-11-24T05:23:59.160Z,6.10
2017-11-24T05:26:28.425Z,5.97
2017-11-24T05:28:56.874Z,5.13
2017-11-24T05:31:25.317Z,7.23
2017-11-24T05:33:54.553Z,5.60
2017-11-24T05:36:22.985Z,6.70
2017-11-24T05:38:51.429Z,4.83
2017-11-24T05:41:19.853Z,5.27
2017-11-24T05:43:48.495Z,4.80
2017-11-24T05:46:16.913Z,5.10
2017-11-24T05:48:45.397Z,4.60
2017-11-24T05:51:13.933Z,5.47
2017-11-24T05:53:42.510Z,4.90
2017-11-24T05:56:10.962Z,5.67
2017-11-24T05:58:40.164Z,4.83
2017-11-24T06:01:09.405Z,4.93
2017-11-24T06:03:37.900Z,5.33
2017-11-24T06:06:06.346Z,5.33
2017-11-24T06:08:34.601Z,4.93
2017-11-24T06:11:03.133Z,5.10
2017-11-24T06:13:31.211Z,5.70
2017-11-24T06:15:59.634Z,4.67
2017-11-24T06:18:28.875Z,4.53
2017-11-24T06:20:57.324Z,4.30
2017-11-24T06:23:26.395Z,4.73
2017-11-24T06:25:54.825Z,5.27
2017-11-24T06:28:23.251Z,4.67
2017-11-24T06:30:53.199Z,5.03
2017-11-24T06:33:22.425Z,4.80
2017-11-24T06:35:50.849Z,4.63
2017-11-24T06:38:19.116Z,6.50
2017-11-24T06:40:47.535Z,5.90
2017-11-24T06:43:16.740Z,5.03
2017-11-24T06:45:45.949Z,5.30
2017-11-24T06:48:14.381Z,4.90
2017-11-24T06:50:42.632Z,5.40
2017-11-24T06:53:11.063Z,4.93
2017-11-24T06:55:39.551Z,5.50
2017-11-24T06:58:08.743Z,5.13
2017-11-24T07:00:37.179Z,5.20
2017-11-24T07:03:05.644Z,5.40
2017-11-24T07:05:34.083Z,4.70
2017-11-24T07:08:02.691Z,5.00
2017-11-24T07:10:31.228Z,5.43
2017-11-24T07:12:59.661Z,5.70
2017-11-24T07:15:28.609Z,5.30
2017-11-24T07:17:56.872Z,4.70
2017-11-24T07:20:25.300Z,5.90
2017-11-24T07:22:54.512Z,6.60
2017-11-24T07:25:23.733Z,6.00
2017-11-24T07:27:52.163Z,6.47
2017-11-24T07:30:20.716Z,5.83
2017-11-24T07:32:49.299Z,5.50
2017-11-24T07:35:17.723Z,6.07
2017-11-24T07:37:46.134Z,5.10
2017-11-24T07:40:14.664Z,6.00
2017-11-24T07:42:43.092Z,5.17
2017-11-24T07:45:12.313Z,5.80
2017-11-24T07:47:40.746Z,5.80
2017-11-24T07:50:09.184Z,4.93
2017-11-24T07:52:37.620Z,6.43
2017-11-24T07:55:06.871Z,6.00
2017-11-24T07:57:35.675Z,5.10
2017-11-24T08:00:04.294Z,5.50
2017-11-24T08:02:34.312Z,5.83
2017-11-24T08:05:03.519Z,6.00
2017-11-24T08:07:32.722Z,4.93
2017-11-24T08:10:01.955Z,5.20
2017-11-24T08:12:30.396Z,4.37
2017-11-24T08:14:59.625Z,4.90
2017-11-24T08:17:28.061Z,5.30
2017-11-24T08:19:56.963Z,5.30
2017-11-24T08:22:25.830Z,5.23
2017-11-24T08:24:54.257Z,5.27
2017-11-24T08:27:22.355Z,5.30
2017-11-24T08:29:50.454Z,5.53
2017-11-24T08:32:18.909Z,4.87
2017-11-24T08:34:47.347Z,5.00
2017-11-24T08:37:16.553Z,5.40
2017-11-24T08:39:45.039Z,5.10
2017-11-24T08:42:14.257Z,4.70
2017-11-24T08:44:43.460Z,4.87
2017-11-24T08:47:17.248Z,5.20
2017-11-24T08:49:47.336Z,4.87
2017-11-24T08:52:15.783Z,4.73
2017-11-24T08:54:44.229Z,5.30
2017-11-24T08:57:13.446Z,4.83
2017-11-24T08:59:41.876Z,5.30
2017-11-24T09:02:10.129Z,6.40
2017-11-24T09:04:38.551Z,5.80
2017-11-24T09:07:06.996Z,6.27
2017-11-24T09:09:35.419Z,5.03
2017-11-24T09:12:03.660Z,4.83
2017-11-24T09:14:31.920Z,4.40
2017-11-24T09:17:00.351Z,4.30
2017-11-24T09:19:28.919Z,4.63
2017-11-24T09:21:57.356Z,4.90
2017-11-24T09:24:25.818Z,4.50
2017-11-24T09:26:55.026Z,4.40
2017-11-24T09:29:24.239Z,3.73
2017-11-24T09:31:52.669Z,4.43
2017-11-24T09:34:21.107Z,4.10
2017-11-24T09:36:49.536Z,4.30
2017-11-24T09:39:18.083Z,3.90
2017-11-24T09:41:46.316Z,3.83
2017-11-24T09:44:14.940Z,4.97
2017-11-24T09:46:43.363Z,4.17
2017-11-24T09:49:11.614Z,4.60
2017-11-24T09:51:40.049Z,4.90
2017-11-24T09:54:09.287Z,4.23
2017-11-24T09:56:37.718Z,4.20
2017-11-24T09:59:06.929Z,4.43
2017-11-24T10:01:36.215Z,4.37
2017-11-24T10:04:04.671Z,3.77
2017-11-24T10:06:33.126Z,4.10
2017-11-24T10:09:01.554Z,4.57
2017-11-24T10:11:29.997Z,3.90
2017-11-24T10:13:58.428Z,4.33
2017-11-24T10:16:26.936Z,3.50
2017-11-24T10:18:56.136Z,3.77
2017-11-24T10:21:44.052Z,3.60
2017-11-24T10:24:12.907Z,3.63
2017-11-24T10:26:41.338Z,3.80
2017-11-24T10:29:10.738Z,3.73
2017-11-24T10:31:39.281Z,3.47
2017-11-24T10:34:07.059Z,3.60
2017-11-24T10:36:35.472Z,3.93
2017-11-24T10:39:04.036Z,3.90
2017-11-24T10:41:32.470Z,4.30
2017-11-24T10:44:00.917Z,3.83
2017-11-24T10:46:30.136Z,3.40
2017-11-24T10:48:58.580Z,3.37
2017-11-24T10:51:27.007Z,3.07
2017-11-24T10:53:55.244Z,3.37
2017-11-24T10:56:23.509Z,3.57
2017-11-24T10:58:51.961Z,3.33
2017-11-24T11:01:20.533Z,3.30
2017-11-24T11:03:48.981Z,3.10
2017-11-24T11:06:18.185Z,3.40
2017-11-24T11:08:47.380Z,2.97
2017-11-24T11:11:16.619Z,2.77
2017-11-24T11:13:45.041Z,4.07
2017-11-24T11:16:13.481Z,3.00
2017-11-24T11:18:41.902Z,3.00
2017-11-24T11:21:11.120Z,3.10
2017-11-24T11:23:40.313Z,3.40
2017-11-24T11:26:08.853Z,3.20
2017-11-24T11:28:37.271Z,3.70
2017-11-24T11:31:05.706Z,3.63
2017-11-24T11:33:34.183Z,3.90
2017-11-24T11:36:02.623Z,3.20
2017-11-24T11:38:31.836Z,3.50
2017-11-24T11:41:01.024Z,3.43
2017-11-24T11:43:30.239Z,3.63
2017-11-24T11:45:59.617Z,3.87
2017-11-24T11:48:28.068Z,3.07
2017-11-24T11:50:56.572Z,3.20
2017-11-24T11:53:25.087Z,3.07
2017-11-24T11:55:54.299Z,3.10
2017-11-24T11:58:22.387Z,3.27
2017-11-24T12:00:50.181Z,3.40
2017-11-24T12:03:18.607Z,3.10
2017-11-24T12:05:47.819Z,3.10
2017-11-24T12:08:16.249Z,2.90
2017-11-24T12:10:44.848Z,2.93
2017-11-24T12:13:13.278Z,2.40
2017-11-24T12:15:41.525Z,2.40
2017-11-24T12:18:10.733Z,3.00
2017-11-24T12:20:39.950Z,3.17
2017-11-24T12:23:08.413Z,3.57
2017-11-24T12:25:37.603Z,3.17
2017-11-24T12:28:06.816Z,3.50
2017-11-24T12:30:35.255Z,3.00
2017-11-24T12:33:03.705Z,3.63
2017-11-24T12:35:32.128Z,3.23
2017-11-24T12:38:00.569Z,3.10
2017-11-24T12:40:29.012Z,3.10
2017-11-24T12:42:57.728Z,3.30
2017-11-24T12:45:26.137Z,3.40
2017-11-24T12:47:54.580Z,3.17
2017-11-24T12:50:23.003Z,3.53
2017-11-24T12:52:51.697Z,3.85
2017-11-24T12:55:20.150Z,2.87
2017-11-24T12:57:48.604Z,3.67
2017-11-24T13:00:17.051Z,3.10
2017-11-24T13:02:45.592Z,3.30
2017-11-24T13:05:14.041Z,3.37
2017-11-24T13:07:43.356Z,3.50
2017-11-24T13:10:11.791Z,3.03
2017-11-24T13:12:40.259Z,3.33
2017-11-24T13:15:08.705Z,2.53
2017-11-24T13:17:37.306Z,2.93
2017-11-24T13:20:05.129Z,3.23
2017-11-24T13:22:34.160Z,2.73
2017-11-24T13:25:02.622Z,3.77
2017-11-24T13:27:31.827Z,3.20
2017-11-24T13:30:01.028Z,3.10
2017-11-24T13:32:30.220Z,3.20
2017-11-24T13:34:59.445Z,2.97
2017-11-24T13:37:27.883Z,3.37
2017-11-24T13:39:57.100Z,3.27
2017-11-24T13:42:26.334Z,3.57
2017-11-24T13:44:54.757Z,3.80
2017-11-24T13:47:23.237Z,4.50
2017-11-24T13:49:51.777Z,4.00
2017-11-24T13:52:20.220Z,4.70
2017-11-24T13:54:49.413Z,4.57
2017-11-24T13:57:17.868Z,4.40
2017-11-24T13:59:46.304Z,5.43
2017-11-24T14:02:14.456Z,5.00
2017-11-24T14:04:42.886Z,4.83
2017-11-24T14:07:11.346Z,6.20
2017-11-24T14:09:39.840Z,5.40
2017-11-24T14:12:08.273Z,6.20
2017-11-24T14:14:36.716Z,5.30
2017-11-24T14:17:05.164Z,4.77
2017-11-24T14:19:34.388Z,5.43
2017-11-24T14:22:02.967Z,7.17
2017-11-24T14:24:31.415Z,5.77
2017-11-24T14:26:59.879Z,6.23
2017-11-24T14:29:29.145Z,5.50
2017-11-24T14:31:57.724Z,4.80
2017-11-24T14:34:26.165Z,4.50
2017-11-24T14:36:55.467Z,5.50
2017-11-24T14:39:24.671Z,5.03
2017-11-24T14:41:53.898Z,5.10
2017-11-24T14:44:22.318Z,5.20
2017-11-24T14:46:50.797Z,5.67
2017-11-24T14:49:19.080Z,5.07
2017-11-24T14:51:47.545Z,6.40
2017-11-24T14:54:15.822Z,5.07
2017-11-24T14:56:44.273Z,5.10
2017-11-24T14:59:12.719Z,5.40
2017-11-24T15:01:41.189Z,5.60
2017-11-24T15:04:09.655Z,5.33
2017-11-24T15:06:37.762Z,5.13
2017-11-24T15:09:06.977Z,5.57
2017-11-24T15:11:36.184Z,5.53
2017-11-24T15:14:04.436Z,5.97
2017-11-24T15:16:32.933Z,6.70
2017-11-24T15:19:02.372Z,6.63
2017-11-24T15:21:30.826Z,6.40
2017-11-24T15:24:00.016Z,5.77
2017-11-24T15:26:29.267Z,5.10
2017-11-24T15:28:57.814Z,5.60
2017-11-24T15:31:26.269Z,4.10
2017-11-24T15:33:56.219Z,3.93
2017-11-24T15:36:24.654Z,4.30
2017-11-24T15:38:53.081Z,4.10
2017-11-24T15:41:21.525Z,4.90
2017-11-24T15:43:49.972Z,4.80
2017-11-24T15:46:18.417Z,4.50
2017-11-24T15:48:46.857Z,4.90
2017-11-24T15:51:14.981Z,4.77
2017-11-24T15:53:44.390Z,4.50
2017-11-24T15:56:12.836Z,3.60
2017-11-24T15:58:42.056Z,4.73
2017-11-24T16:01:11.265Z,4.10
2017-11-24T16:03:39.706Z,4.70
2017-11-24T16:06:08.133Z,4.43
2017-11-24T16:08:36.689Z,4.47
2017-11-24T16:11:05.127Z,4.40
2017-11-24T16:13:33.571Z,4.60
2017-11-24T16:16:02.773Z,4.67
2017-11-24T16:18:31.221Z,4.77
2017-11-24T16:21:01.198Z,5.10
2017-11-24T16:23:29.653Z,4.57
2017-11-24T16:25:58.356Z,4.70
2017-11-24T16:28:26.808Z,4.87
2017-11-24T16:30:56.026Z,4.60
2017-11-24T16:33:24.463Z,4.53
2017-11-24T16:35:52.920Z,4.50
2017-11-24T16:38:21.385Z,5.03
2017-11-24T16:40:49.820Z,4.13
2017-11-24T16:43:19.893Z,4.20
2017-11-24T16:45:48.317Z,4.90
2017-11-24T16:48:16.634Z,4.83
2017-11-24T16:50:45.094Z,5.50
2017-11-24T16:53:15.062Z,4.70
2017-11-24T16:55:43.515Z,4.40
2017-11-24T16:58:12.115Z,5.33
2017-11-24T17:00:40.223Z,4.97
2017-11-24T17:03:08.325Z,5.33
2017-11-24T17:05:37.272Z,4.83
2017-11-24T17:08:05.388Z,5.30
2017-11-24T17:10:33.811Z,5.10
2017-11-24T17:13:02.255Z,5.50
2017-11-24T17:15:31.447Z,5.87
2017-11-24T17:17:59.891Z,4.97
2017-11-24T17:20:28.328Z,5.03
2017-11-24T17:22:57.779Z,5.37
2017-11-24T17:25:26.416Z,5.40
2017-11-24T17:27:54.908Z,6.03
2017-11-24T17:30:23.343Z,6.30
2017-11-24T17:32:51.817Z,5.67
2017-11-24T17:35:20.258Z,6.27
2017-11-24T17:37:48.697Z,5.70
2017-11-24T17:40:17.141Z,6.60
2017-11-24T17:42:45.590Z,5.40
2017-11-24T17:45:13.504Z,5.63
2017-11-24T17:47:42.186Z,4.57
2017-11-24T17:50:10.640Z,4.60
2017-11-24T17:52:39.095Z,4.10
2017-11-24T17:55:08.302Z,3.93
2017-11-24T17:57:37.535Z,4.10
2017-11-24T18:00:05.633Z,3.83
2017-11-24T18:02:34.086Z,3.80
2017-11-24T18:05:02.527Z,3.70
2017-11-24T18:07:31.580Z,3.60
2017-11-24T18:10:00.260Z,4.20
2017-11-24T18:12:28.716Z,3.27
2017-11-24T18:14:57.140Z,3.90
2017-11-24T18:17:25.600Z,3.40
2017-11-24T18:19:54.049Z,3.57
2017-11-24T18:22:23.316Z,2.90
2017-11-24T18:24:51.870Z,2.93
2017-11-24T18:27:20.318Z,3.20
2017-11-24T18:29:49.593Z,2.70
2017-11-24T18:32:18.796Z,3.43
2017-11-24T18:34:47.053Z,3.00
2017-11-24T18:37:15.484Z,3.20
2017-11-24T18:39:44.116Z,3.43
2017-11-24T18:42:12.361Z,3.50
2017-11-24T18:44:40.816Z,3.37
2017-11-24T18:47:09.839Z,3.50
2017-11-24T18:49:38.132Z,3.87
2017-11-24T18:52:06.557Z,4.53
2017-11-24T18:54:35.012Z,5.97
2017-11-24T18:57:03.484Z,4.80
2017-11-24T18:59:31.601Z,4.53
2017-11-24T19:02:00.807Z,4.77
2017-11-24T19:04:29.985Z,4.03
2017-11-24T19:06:58.454Z,3.67
2017-11-24T19:09:26.536Z,3.23
2017-11-24T19:11:54.653Z,3.97
2017-11-24T19:14:23.877Z,4.00
2017-11-24T19:16:52.378Z,3.87
2017-11-24T19:19:20.808Z,4.13
2017-11-24T19:21:50.144Z,3.20
2017-11-24T19:24:18.672Z,3.87
2017-11-24T19:26:47.883Z,3.90
2017-11-24T19:29:16.787Z,3.90
2017-11-24T19:31:45.738Z,4.00
2017-11-24T19:34:14.111Z,4.23
2017-11-24T19:36:41.898Z,4.20
2017-11-24T19:39:10.347Z,4.07
2017-11-24T19:41:38.444Z,4.43
2017-11-24T19:44:06.930Z,4.20
2017-11-24T19:46:35.372Z,4.03
2017-11-24T19:49:07.063Z,4.90
2017-11-24T19:51:35.535Z,5.03
2017-11-24T19:54:04.198Z,5.10
2017-11-24T19:56:32.524Z,4.23
2017-11-24T19:59:01.469Z,4.80
2017-11-24T20:01:30.056Z,5.33
2017-11-24T20:03:58.745Z,4.70
2017-11-24T20:06:27.542Z,4.30
2017-11-24T20:08:56.325Z,3.63
2017-11-24T20:11:24.843Z,4.53
2017-11-24T20:13:53.596Z,4.03
2017-11-24T20:16:22.602Z,4.50
2017-11-24T20:18:51.584Z,5.63
2017-11-24T20:21:20.382Z,4.87
2017-11-24T20:23:49.266Z,4.23
2017-11-24T20:26:18.055Z,4.10
2017-11-24T20:28:47.050Z,4.90
2017-11-24T20:31:16.146Z,4.63
2017-11-24T20:33:45.039Z,3.97
2017-11-24T20:36:14.753Z,4.57
2017-11-24T20:38:43.643Z,4.67
2017-11-24T20:41:12.535Z,4.90
2017-11-24T20:43:41.549Z,4.20
2017-11-24T20:46:11.245Z,3.90
2017-11-24T20:48:40.954Z,3.80
2017-11-24T20:51:09.749Z,4.30
2017-11-24T20:53:38.604Z,4.77
2017-11-24T20:56:07.526Z,4.20
2017-11-24T20:58:36.627Z,4.60
2017-11-24T21:01:05.413Z,4.60
2017-11-24T21:03:34.203Z,4.63
2017-11-24T21:06:02.992Z,4.33
2017-11-24T21:08:31.816Z,4.00
2017-11-24T21:11:00.499Z,4.53
2017-11-24T21:13:29.873Z,3.93
2017-11-24T21:15:59.151Z,4.50
2017-11-24T21:18:27.417Z,3.63
2017-11-24T21:20:56.710Z,4.17
2017-11-24T21:23:25.941Z,3.83
2017-11-24T21:25:54.214Z,4.60
2017-11-24T21:28:22.721Z,6.90
2017-11-24T21:30:51.149Z,5.30
2017-11-24T21:33:19.606Z,4.87
2017-11-24T21:35:48.120Z,7.77
2017-11-24T21:38:17.366Z,5.07
2017-11-24T21:40:45.808Z,10.30
2017-11-24T21:43:15.013Z,9.90
2017-11-24T21:45:44.212Z,5.20
2017-11-24T21:48:13.518Z,7.40
2017-11-24T21:50:42.720Z,7.10
2017-11-24T21:53:11.161Z,7.20
2017-11-24T21:55:39.620Z,5.90
2017-11-24T21:58:08.068Z,5.50
2017-11-24T22:00:36.513Z,6.03
2017-11-24T22:03:05.736Z,5.43
2017-11-24T22:05:34.954Z,4.93
2017-11-24T22:08:03.405Z,5.10
2017-11-24T22:10:32.612Z,5.10
2017-11-24T22:13:01.836Z,5.77
2017-11-24T22:15:31.239Z,4.90
2017-11-24T22:17:59.798Z,4.77
2017-11-24T22:20:28.995Z,4.50
2017-11-24T22:22:58.026Z,5.00
2017-11-24T22:25:26.475Z,5.07
2017-11-24T22:27:55.509Z,5.30
2017-11-24T22:30:23.890Z,5.17
2017-11-24T22:32:52.147Z,4.30
2017-11-24T22:35:20.430Z,4.70
2017-11-24T22:37:48.863Z,4.50
2017-11-24T22:40:17.353Z,4.80
2017-11-24T22:42:45.792Z,4.47
2017-11-24T22:45:14.247Z,4.57
2017-11-24T22:47:43.454Z,4.40
2017-11-24T22:50:11.740Z,4.43
2017-11-24T22:52:40.006Z,4.40
2017-11-24T22:55:09.072Z,4.07
2017-11-24T22:57:37.324Z,4.17
2017-11-24T23:00:05.444Z,3.73
2017-11-24T23:02:34.749Z,4.53
2017-11-24T23:05:03.984Z,5.03
2017-11-24T23:07:32.440Z,5.10
2017-11-24T23:10:00.689Z,4.67
2017-11-24T23:12:29.897Z,3.50
2017-11-24T23:14:59.088Z,3.40
2017-11-24T23:17:27.545Z,3.50
2017-11-24T23:19:55.991Z,3.73
2017-11-24T23:22:24.464Z,4.27
2017-11-24T23:24:52.895Z,4.03
2017-11-24T23:27:21.352Z,3.70
2017-11-24T23:29:49.797Z,3.70
2017-11-24T23:32:18.986Z,3.70
2017-11-24T23:34:48.217Z,3.43
2017-11-24T23:37:16.658Z,3.00
2017-11-24T23:39:45.284Z,3.57
2017-11-24T23:42:13.734Z,3.40
2017-11-24T23:44:42.201Z,3.30
2017-11-24T23:47:10.643Z,3.20
2017-11-24T23:49:39.100Z,3.00
2017-11-24T23:52:07.532Z,2.87
2017-11-24T23:54:35.988Z,3.40
2017-11-24T23:57:04.442Z,2.83
2017-11-24T23:59:33.622Z,3.20
